createdAt,value
2022-10-05T00:00:23.184Z,9.13
2022-10-05T00:02:52.429Z,6.13
2022-10-05T00:05:27.992Z,7.30
2022-10-05T00:07:58.081Z,10.07
2022-10-05T00:10:26.263Z,8.23
2022-10-05T00:12:54.182Z,8.00
2022-10-05T00:15:24.445Z,7.80
2022-10-05T00:17:52.353Z,8.43
2022-10-05T00:20:23.885Z,9.30
2022-10-05T00:22:53.380Z,8.73
2022-10-05T00:25:22.571Z,7.57
2022-10-05T00:27:56.326Z,7.77
2022-10-05T00:30:28.073Z,6.57
2022-10-05T00:32:59.457Z,5.60
2022-10-05T00:35:29.563Z,7.07
2022-10-05T00:37:57.661Z,9.67
2022-10-05T00:40:34.571Z,6.27
2022-10-05T00:43:22.575Z,6.90
2022-10-05T00:45:54.760Z,10.20
2022-10-05T00:48:26.521Z,7.60
2022-10-05T00:51:13.131Z,8.93
2022-10-05T00:53:45.206Z,6.70
2022-10-05T00:56:30.309Z,7.83
2022-10-05T00:59:07.065Z,8.40
2022-10-05T01:01:40.077Z,7.87
2022-10-05T01:04:14.585Z,8.17
2022-10-05T01:06:49.456Z,9.47
2022-10-05T01:09:23.109Z,7.20
2022-10-05T01:11:58.139Z,10.27
2022-10-05T01:14:29.388Z,7.37
2022-10-05T01:17:03.060Z,6.67
2022-10-05T01:19:45.934Z,7.67
2022-10-05T01:22:23.675Z,5.37
2022-10-05T01:25:03.851Z,9.67
2022-10-05T01:27:41.069Z,7.67
2022-10-05T01:30:13.622Z,6.93
2022-10-05T01:32:47.574Z,8.07
2022-10-05T01:35:24.607Z,7.37
2022-10-05T01:38:00.197Z,6.80
2022-10-05T01:40:35.512Z,7.13
2022-10-05T01:43:11.857Z,7.40
2022-10-05T01:45:46.944Z,7.53
2022-10-05T01:48:20.790Z,5.60
2022-10-05T01:50:55.293Z,8.40
2022-10-05T01:53:29.456Z,9.00
2022-10-05T01:56:03.793Z,9.10
2022-10-05T01:58:40.003Z,5.57
2022-10-05T02:01:11.340Z,10.00
2022-10-05T02:03:41.461Z,7.10
2022-10-05T02:06:12.711Z,6.70
2022-10-05T02:08:43.341Z,7.00
2022-10-05T02:11:13.645Z,8.37
2022-10-05T02:13:44.670Z,13.40
2022-10-05T02:16:17.791Z,6.03
2022-10-05T02:18:50.998Z,7.57
2022-10-05T02:21:20.064Z,10.50
2022-10-05T02:23:50.460Z,8.97
2022-10-05T02:26:19.009Z,9.00
2022-10-05T02:28:50.871Z,5.90
2022-10-05T02:31:22.762Z,6.87
2022-10-05T02:33:50.830Z,8.40
2022-10-05T02:36:21.837Z,11.50
2022-10-05T02:39:02.225Z,8.93
2022-10-05T02:41:39.705Z,7.40
2022-10-05T02:44:13.366Z,8.63
2022-10-05T02:46:47.005Z,7.17
2022-10-05T02:49:21.914Z,9.90
2022-10-05T02:51:54.362Z,8.03
2022-10-05T02:54:33.436Z,6.20
2022-10-05T02:57:05.151Z,6.60
2022-10-05T02:59:37.768Z,9.70
2022-10-05T03:02:13.610Z,8.80
2022-10-05T03:04:46.122Z,9.03
2022-10-05T03:07:17.304Z,6.53
2022-10-05T03:09:49.785Z,5.80
2022-10-05T03:12:30.153Z,9.50
2022-10-05T03:15:05.088Z,6.23
2022-10-05T03:17:37.896Z,6.60
2022-10-05T03:20:16.187Z,7.40
2022-10-05T03:22:49.795Z,7.23
2022-10-05T03:25:37.847Z,10.70
2022-10-05T03:28:09.983Z,7.33
2022-10-05T03:30:43.678Z,9.83
2022-10-05T03:33:16.113Z,6.33
2022-10-05T03:35:49.921Z,8.90
2022-10-05T03:38:22.202Z,8.33
2022-10-05T03:40:57.110Z,8.17
2022-10-05T03:43:37.409Z,8.83
2022-10-05T03:46:11.376Z,8.93
2022-10-05T03:48:42.990Z,8.27
2022-10-05T03:51:17.214Z,7.07
2022-10-05T03:53:47.280Z,6.90
2022-10-05T03:56:17.797Z,7.30
2022-10-05T03:58:51.547Z,8.30
2022-10-05T04:01:24.204Z,7.93
2022-10-05T04:03:55.390Z,7.40
2022-10-05T04:06:25.966Z,8.03
2022-10-05T04:08:57.392Z,11.07
2022-10-05T04:11:28.407Z,7.30
2022-10-05T04:14:00.426Z,6.50
2022-10-05T04:16:32.821Z,9.40
2022-10-05T04:19:04.193Z,8.13
2022-10-05T04:21:35.292Z,8.50
2022-10-05T04:24:07.763Z,6.40
2022-10-05T04:26:39.707Z,11.20
2022-10-05T04:29:15.107Z,7.57
2022-10-05T04:31:58.377Z,9.13
2022-10-05T04:34:45.000Z,6.17
2022-10-05T04:37:19.574Z,8.63
2022-10-05T04:39:55.972Z,8.83
2022-10-05T04:42:30.694Z,9.53
2022-10-05T04:45:10.562Z,12.03
2022-10-05T04:48:04.146Z,10.67
2022-10-05T04:50:40.737Z,10.27
2022-10-05T04:53:16.270Z,11.23
2022-10-05T04:55:52.485Z,7.70
2022-10-05T04:58:27.926Z,7.57
2022-10-05T05:01:07.478Z,8.93
2022-10-05T05:03:51.584Z,8.80
2022-10-05T05:06:30.501Z,8.00
2022-10-05T05:09:28.277Z,10.10
2022-10-05T05:12:20.174Z,17.13
2022-10-05T05:15:17.695Z,8.47
2022-10-05T05:17:58.036Z,13.13
2022-10-05T05:20:34.841Z,15.70
2022-10-05T05:23:07.220Z,12.20
2022-10-05T05:25:40.425Z,11.27
2022-10-05T05:28:17.753Z,9.73
2022-10-05T05:30:49.159Z,9.43
2022-10-05T05:33:23.015Z,12.97
2022-10-05T05:36:25.469Z,13.57
2022-10-05T05:39:00.128Z,9.83
2022-10-05T05:41:32.063Z,10.17
2022-10-05T05:44:07.255Z,11.23
2022-10-05T05:47:01.791Z,13.10
2022-10-05T05:49:32.185Z,9.70
2022-10-05T05:52:05.694Z,9.90
2022-10-05T05:54:38.513Z,14.60
2022-10-05T05:57:11.446Z,11.13
2022-10-05T05:59:48.633Z,7.90
2022-10-05T06:02:20.486Z,10.60
2022-10-05T06:04:52.313Z,10.20
2022-10-05T06:07:30.168Z,11.10
2022-10-05T06:10:01.715Z,10.40
2022-10-05T06:12:32.997Z,8.83
2022-10-05T06:15:04.356Z,12.70
2022-10-05T06:17:38.362Z,12.23
2022-10-05T06:20:13.154Z,11.00
2022-10-05T06:22:44.221Z,12.13
2022-10-05T06:25:20.442Z,11.90
2022-10-05T06:28:03.114Z,8.00
2022-10-05T06:30:37.930Z,8.57
2022-10-05T06:33:12.855Z,8.63
2022-10-05T06:35:51.572Z,12.67
2022-10-05T06:38:37.551Z,7.93
2022-10-05T06:41:13.158Z,9.97
2022-10-05T06:43:51.334Z,10.50
2022-10-05T06:46:24.035Z,10.87
2022-10-05T06:49:13.072Z,8.90
2022-10-05T06:51:46.465Z,12.13
2022-10-05T06:54:24.927Z,11.43
2022-10-05T06:56:58.235Z,9.53
2022-10-05T06:59:31.462Z,7.83
2022-10-05T07:02:06.325Z,9.63
2022-10-05T07:04:57.190Z,8.20
2022-10-05T07:07:27.786Z,8.47
2022-10-05T07:10:09.086Z,11.53
2022-10-05T07:12:51.223Z,8.00
2022-10-05T07:15:38.037Z,9.63
2022-10-05T07:18:17.057Z,9.27
2022-10-05T07:20:50.745Z,10.63
2022-10-05T07:23:25.960Z,14.77
2022-10-05T07:26:03.334Z,12.87
2022-10-05T07:28:36.019Z,12.37
2022-10-05T07:31:07.986Z,10.93
2022-10-05T07:33:41.873Z,9.20
2022-10-05T07:36:32.246Z,11.23
2022-10-05T07:39:03.516Z,9.17
2022-10-05T07:41:40.196Z,8.37
2022-10-05T07:44:13.449Z,9.00
2022-10-05T07:46:51.115Z,8.00
2022-10-05T07:49:24.485Z,8.23
2022-10-05T07:51:56.483Z,13.97
2022-10-05T07:54:28.486Z,9.53
2022-10-05T07:57:03.132Z,8.60
2022-10-05T07:59:35.816Z,11.83
2022-10-05T08:02:08.310Z,8.60
2022-10-05T08:04:41.870Z,8.17
2022-10-05T08:07:14.608Z,7.87
2022-10-05T08:09:45.494Z,9.50
2022-10-05T08:12:37.045Z,12.07
2022-10-05T08:15:08.390Z,9.37
2022-10-05T08:17:45.444Z,6.97
2022-10-05T08:20:36.955Z,8.60
2022-10-05T08:23:13.357Z,11.17
2022-10-05T08:25:47.549Z,10.40
2022-10-05T08:28:20.867Z,8.53
2022-10-05T08:30:58.174Z,8.93
2022-10-05T08:33:28.652Z,10.73
2022-10-05T08:36:04.827Z,6.60
2022-10-05T08:38:34.109Z,9.47
2022-10-05T08:41:29.766Z,10.43
2022-10-05T08:44:36.698Z,7.73
2022-10-05T08:47:17.025Z,8.57
2022-10-05T08:50:11.579Z,7.37
2022-10-05T08:52:56.021Z,8.33
2022-10-05T08:55:33.297Z,8.17
2022-10-05T08:58:24.606Z,9.23
2022-10-05T09:00:58.876Z,9.07
2022-10-05T09:03:58.581Z,8.87
2022-10-05T09:07:02.074Z,11.60
2022-10-05T09:09:51.214Z,12.43
2022-10-05T09:13:07.113Z,7.23
2022-10-05T09:15:44.216Z,10.73
2022-10-05T09:18:36.223Z,8.90
2022-10-05T09:21:08.042Z,8.47
2022-10-05T09:23:39.668Z,12.70
2022-10-05T09:26:10.367Z,7.63
2022-10-05T09:28:51.886Z,7.13
2022-10-05T09:31:29.440Z,8.33
2022-10-05T09:34:30.591Z,8.50
2022-10-05T09:37:28.833Z,6.93
2022-10-05T09:40:29.057Z,10.20
2022-10-05T09:43:34.895Z,8.87
2022-10-05T09:46:26.193Z,7.20
2022-10-05T09:49:11.640Z,7.90
2022-10-05T09:52:06.974Z,7.77
2022-10-05T09:54:52.353Z,10.50
2022-10-05T09:57:53.090Z,7.03
2022-10-05T10:00:26.518Z,7.07
2022-10-05T10:03:33.270Z,10.50
2022-10-05T10:06:35.136Z,6.77
2022-10-05T10:09:14.952Z,8.63
2022-10-05T10:12:15.224Z,8.03
2022-10-05T10:15:38.042Z,7.57
2022-10-05T10:18:15.577Z,8.67
2022-10-05T10:21:00.328Z,7.87
2022-10-05T10:23:42.862Z,6.87
2022-10-05T10:26:40.681Z,5.93
2022-10-05T10:29:50.053Z,7.00
2022-10-05T10:32:44.198Z,6.07
2022-10-05T10:35:32.159Z,6.83
2022-10-05T10:38:31.069Z,6.17
2022-10-05T10:41:25.458Z,7.53
2022-10-05T10:44:11.135Z,8.30
2022-10-05T10:46:46.281Z,9.43
2022-10-05T10:49:26.541Z,6.87
2022-10-05T10:52:11.714Z,7.30
2022-10-05T10:55:00.430Z,7.67
2022-10-05T10:57:38.282Z,5.70
2022-10-05T11:00:25.235Z,4.87
2022-10-05T11:03:09.083Z,6.17
2022-10-05T11:05:53.970Z,5.20
2022-10-05T11:08:47.473Z,6.90
2022-10-05T11:11:27.175Z,5.53
2022-10-05T11:14:21.341Z,5.33
2022-10-05T11:17:08.181Z,5.50
2022-10-05T11:20:04.060Z,6.07
2022-10-05T11:22:43.074Z,5.90
2022-10-05T11:25:52.093Z,5.87
2022-10-05T11:28:39.725Z,4.87
2022-10-05T11:31:45.976Z,4.90
2022-10-05T11:34:45.582Z,4.93
2022-10-05T11:37:41.026Z,3.57
2022-10-05T11:40:35.018Z,4.37
2022-10-05T11:43:28.700Z,6.13
2022-10-05T11:46:07.689Z,6.07
2022-10-05T11:48:53.395Z,4.47
2022-10-05T11:51:30.264Z,6.93
2022-10-05T11:54:08.011Z,8.37
2022-10-05T11:56:37.402Z,4.10
2022-10-05T11:59:13.355Z,4.23
2022-10-05T12:01:46.974Z,4.27
2022-10-05T12:04:20.137Z,4.10
2022-10-05T12:07:02.954Z,3.67
2022-10-05T12:10:05.683Z,4.83
2022-10-05T12:12:37.770Z,3.37
2022-10-05T12:15:13.745Z,4.57
2022-10-05T12:17:45.216Z,3.70
2022-10-05T12:20:18.597Z,4.43
2022-10-05T12:22:49.422Z,3.67
2022-10-05T12:25:22.718Z,4.20
2022-10-05T12:27:53.545Z,4.07
2022-10-05T12:30:27.700Z,3.30
2022-10-05T12:33:02.345Z,2.93
2022-10-05T12:35:48.047Z,3.13
2022-10-05T12:38:23.064Z,3.93
2022-10-05T12:40:54.684Z,4.80
2022-10-05T12:43:26.910Z,3.73
2022-10-05T12:46:02.181Z,4.20
2022-10-05T12:48:40.106Z,4.67
2022-10-05T12:51:13.492Z,4.13
2022-10-05T12:53:50.514Z,4.67
2022-10-05T12:56:25.449Z,4.57
2022-10-05T12:58:57.458Z,5.37
2022-10-05T13:01:35.206Z,2.77
2022-10-05T13:04:18.448Z,3.43
2022-10-05T13:06:59.186Z,3.60
2022-10-05T13:09:35.217Z,4.87
2022-10-05T13:12:07.625Z,3.53
2022-10-05T13:14:50.519Z,4.90
2022-10-05T13:17:22.989Z,3.73
2022-10-05T13:19:57.119Z,4.30
2022-10-05T13:22:35.523Z,3.30
2022-10-05T13:25:22.045Z,4.97
2022-10-05T13:27:54.875Z,5.53
2022-10-05T13:30:23.444Z,3.23
2022-10-05T13:32:55.908Z,6.10
2022-10-05T13:35:33.995Z,6.33
2022-10-05T13:38:11.211Z,3.97
2022-10-05T13:40:43.432Z,7.13
2022-10-05T13:43:20.203Z,5.27
2022-10-05T13:45:55.719Z,7.57
2022-10-05T13:48:44.211Z,2.53
2022-10-05T13:51:17.107Z,3.97
2022-10-05T13:53:49.528Z,3.80
2022-10-05T13:56:22.103Z,2.80
2022-10-05T13:58:54.244Z,5.17
2022-10-05T14:01:36.100Z,4.57
2022-10-05T14:04:11.865Z,3.13
2022-10-05T14:06:40.289Z,3.10
2022-10-05T14:09:14.768Z,2.97
2022-10-05T14:11:49.738Z,3.33
2022-10-05T14:14:25.373Z,2.53
2022-10-05T14:16:54.802Z,2.70
2022-10-05T14:19:27.991Z,2.40
2022-10-05T14:22:01.187Z,3.43
2022-10-05T14:24:43.661Z,5.03
2022-10-05T14:27:21.199Z,3.03
2022-10-05T14:29:57.001Z,3.00
2022-10-05T14:32:27.122Z,3.40
2022-10-05T14:35:05.108Z,5.00
2022-10-05T14:37:43.265Z,3.27
2022-10-05T14:40:28.747Z,3.13
2022-10-05T14:42:57.368Z,5.13
2022-10-05T14:45:26.812Z,2.27
2022-10-05T14:48:00.199Z,5.33
2022-10-05T14:50:29.782Z,2.47
2022-10-05T14:53:16.678Z,3.80
2022-10-05T14:55:58.133Z,5.20
2022-10-05T14:58:46.976Z,2.70
2022-10-05T15:01:18.897Z,3.10
2022-10-05T15:03:57.946Z,3.27
2022-10-05T15:06:31.161Z,5.07
2022-10-05T15:09:30.249Z,4.20
2022-10-05T15:12:01.616Z,4.07
2022-10-05T15:14:32.501Z,2.57
2022-10-05T15:17:03.580Z,2.70
2022-10-05T15:19:42.205Z,4.33
2022-10-05T15:22:20.146Z,3.40
2022-10-05T15:24:57.812Z,4.20
2022-10-05T15:27:35.857Z,4.23
2022-10-05T15:30:11.339Z,2.57
2022-10-05T15:32:50.020Z,3.13
2022-10-05T15:35:50.195Z,4.20
2022-10-05T15:38:22.045Z,5.97
2022-10-05T15:40:59.650Z,2.63
2022-10-05T15:43:46.605Z,2.97
2022-10-05T15:46:19.095Z,7.60
2022-10-05T15:48:53.355Z,18.23
2022-10-05T15:51:43.606Z,6.67
2022-10-05T15:54:31.915Z,3.30
2022-10-05T15:57:03.578Z,4.90
2022-10-05T15:59:38.657Z,4.07
2022-10-05T16:02:16.037Z,2.43
2022-10-05T16:04:49.107Z,3.60
2022-10-05T16:07:39.283Z,2.63
2022-10-05T16:10:14.879Z,4.50
2022-10-05T16:12:48.782Z,3.63
2022-10-05T16:15:26.338Z,2.53
2022-10-05T16:18:18.269Z,4.30
2022-10-05T16:20:51.136Z,2.60
2022-10-05T16:23:27.674Z,5.20
2022-10-05T16:26:05.868Z,3.40
2022-10-05T16:28:40.967Z,4.57
2022-10-05T16:31:17.863Z,3.03
2022-10-05T16:33:56.384Z,2.20
2022-10-05T16:36:33.550Z,3.33
2022-10-05T16:39:05.174Z,2.50
2022-10-05T16:41:37.311Z,2.47
2022-10-05T16:44:11.405Z,3.63
2022-10-05T16:46:46.944Z,2.53
2022-10-05T16:49:22.314Z,2.47
2022-10-05T16:51:59.083Z,3.27
2022-10-05T16:54:31.620Z,4.50
2022-10-05T16:57:03.819Z,3.40
2022-10-05T16:59:49.506Z,4.33
2022-10-05T17:02:40.847Z,2.90
2022-10-05T17:05:20.122Z,2.57
2022-10-05T17:08:03.772Z,2.90
2022-10-05T17:10:46.721Z,3.30
2022-10-05T17:13:32.548Z,3.87
2022-10-05T17:16:05.799Z,2.97
2022-10-05T17:19:02.244Z,2.60
2022-10-05T17:21:34.788Z,3.63
2022-10-05T17:24:14.633Z,3.10
2022-10-05T17:26:57.803Z,4.17
2022-10-05T17:29:30.881Z,2.20
2022-10-05T17:32:12.811Z,2.90
2022-10-05T17:35:18.236Z,4.43
2022-10-05T17:38:09.321Z,6.50
2022-10-05T17:40:38.947Z,4.13
2022-10-05T17:43:25.363Z,3.67
2022-10-05T17:45:56.834Z,3.43
2022-10-05T17:48:44.135Z,3.00
2022-10-05T17:51:37.054Z,3.63
2022-10-05T17:54:40.639Z,5.37
2022-10-05T17:57:19.402Z,2.90
2022-10-05T17:59:52.465Z,3.13
2022-10-05T18:02:23.159Z,3.33
2022-10-05T18:04:52.535Z,3.10
2022-10-05T18:07:23.810Z,3.00
2022-10-05T18:10:00.008Z,2.77
2022-10-05T18:12:39.983Z,5.40
2022-10-05T18:15:34.097Z,5.17
2022-10-05T18:18:35.754Z,4.67
2022-10-05T18:21:15.602Z,2.30
2022-10-05T18:23:49.059Z,2.83
2022-10-05T18:26:26.574Z,2.60
2022-10-05T18:29:13.946Z,3.00
2022-10-05T18:31:50.021Z,26.30
2022-10-05T18:34:27.549Z,5.03
2022-10-05T18:37:21.322Z,2.33
2022-10-05T18:40:03.489Z,2.63
2022-10-05T18:42:37.652Z,2.80
2022-10-05T18:45:20.576Z,2.27
2022-10-05T18:47:56.232Z,6.90
2022-10-05T18:50:28.263Z,2.33
2022-10-05T18:53:13.387Z,2.87
2022-10-05T18:55:46.938Z,2.80
2022-10-05T18:58:22.260Z,2.53
2022-10-05T19:01:19.203Z,2.47
2022-10-05T19:03:56.278Z,2.17
2022-10-05T19:06:27.635Z,2.40
2022-10-05T19:09:05.674Z,2.50
2022-10-05T19:11:40.900Z,2.37
2022-10-05T19:14:26.524Z,5.63
2022-10-05T19:17:01.662Z,5.30
2022-10-05T19:19:49.488Z,5.23
2022-10-05T19:22:26.045Z,2.67
2022-10-05T19:25:14.459Z,3.83
2022-10-05T19:27:55.173Z,2.90
2022-10-05T19:30:25.259Z,2.20
2022-10-05T19:33:15.121Z,2.50
2022-10-05T19:35:53.657Z,2.30
2022-10-05T19:38:28.961Z,2.00
2022-10-05T19:41:02.648Z,1.90
2022-10-05T19:43:50.407Z,2.50
2022-10-05T19:46:25.029Z,2.20
2022-10-05T19:48:54.869Z,2.87
2022-10-05T19:51:29.374Z,3.10
2022-10-05T19:53:59.094Z,3.90
2022-10-05T19:56:30.977Z,2.90
2022-10-05T19:59:13.199Z,3.23
2022-10-05T20:01:44.373Z,3.40
2022-10-05T20:04:12.297Z,2.00
2022-10-05T20:06:40.607Z,5.37
2022-10-05T20:09:20.478Z,2.73
2022-10-05T20:11:52.158Z,3.07
2022-10-05T20:14:22.339Z,1.60
2022-10-05T20:17:35.072Z,2.73
2022-10-05T20:20:31.422Z,2.87
2022-10-05T20:23:21.253Z,6.43
2022-10-05T20:26:09.818Z,2.90
2022-10-05T20:28:37.855Z,2.30
2022-10-05T20:31:08.808Z,2.73
2022-10-05T20:33:36.797Z,2.10
2022-10-05T20:36:05.727Z,4.70
2022-10-05T20:38:40.053Z,2.37
2022-10-05T20:41:08.996Z,2.17
2022-10-05T20:43:39.054Z,4.20
2022-10-05T20:46:08.659Z,2.30
2022-10-05T20:48:36.634Z,2.43
2022-10-05T20:51:04.551Z,3.80
2022-10-05T20:53:32.849Z,3.13
2022-10-05T20:56:02.494Z,2.83
2022-10-05T20:58:30.819Z,2.63
2022-10-05T21:01:19.672Z,4.00
2022-10-05T21:03:49.691Z,4.13
2022-10-05T21:06:18.033Z,4.17
2022-10-05T21:08:46.382Z,3.80
2022-10-05T21:11:14.645Z,4.50
2022-10-05T21:13:44.757Z,4.00
2022-10-05T21:16:13.542Z,2.93
2022-10-05T21:18:41.534Z,4.43
2022-10-05T21:21:10.812Z,2.13
2022-10-05T21:23:38.707Z,2.70
2022-10-05T21:26:07.399Z,3.50
2022-10-05T21:28:35.459Z,2.77
2022-10-05T21:31:03.423Z,2.03
2022-10-05T21:33:31.681Z,2.23
2022-10-05T21:35:59.953Z,4.30
2022-10-05T21:38:29.964Z,1.67
2022-10-05T21:40:58.397Z,1.60
2022-10-05T21:43:26.735Z,2.60
2022-10-05T21:45:55.820Z,5.17
2022-10-05T21:48:23.959Z,2.97
2022-10-05T21:50:51.889Z,2.70
2022-10-05T21:53:22.785Z,2.60
2022-10-05T21:55:52.713Z,2.83
2022-10-05T21:58:22.111Z,3.40
2022-10-05T22:00:50.375Z,3.13
2022-10-05T22:03:18.282Z,3.90
2022-10-05T22:05:46.292Z,1.40
2022-10-05T22:08:21.129Z,2.40
2022-10-05T22:10:49.951Z,2.90
2022-10-05T22:13:19.212Z,2.67
2022-10-05T22:15:47.189Z,2.03
2022-10-05T22:18:18.509Z,2.00
2022-10-05T22:20:46.862Z,4.93
2022-10-05T22:23:14.839Z,2.40
2022-10-05T22:25:43.614Z,4.90
2022-10-05T22:28:13.381Z,1.50
2022-10-05T22:30:44.448Z,3.27
2022-10-05T22:33:12.370Z,1.90
2022-10-05T22:35:40.695Z,2.90
2022-10-05T22:38:08.601Z,1.50
2022-10-05T22:40:37.523Z,1.73
2022-10-05T22:43:05.409Z,1.33
2022-10-05T22:45:33.357Z,0.93
2022-10-05T22:48:03.784Z,1.13
2022-10-05T22:50:31.722Z,2.03
2022-10-05T22:52:59.642Z,2.00
2022-10-05T22:55:27.582Z,1.00
2022-10-05T22:57:55.495Z,0.87
2022-10-05T23:00:35.221Z,2.37
2022-10-05T23:03:12.898Z,1.90
2022-10-05T23:05:41.024Z,0.90
2022-10-05T23:08:09.044Z,0.83
2022-10-05T23:10:36.946Z,1.17
2022-10-05T23:13:05.067Z,2.17
2022-10-05T23:15:33.626Z,1.77
2022-10-05T23:18:01.636Z,1.53
2022-10-05T23:20:30.884Z,1.03
2022-10-05T23:23:00.433Z,1.07
2022-10-05T23:25:28.340Z,3.60
2022-10-05T23:27:56.347Z,1.80
2022-10-05T23:30:24.261Z,1.20
2022-10-05T23:32:52.403Z,1.03
2022-10-05T23:35:20.270Z,2.97
2022-10-05T23:37:49.592Z,0.83
2022-10-05T23:40:17.758Z,0.60
2022-10-05T23:42:45.994Z,1.33
2022-10-05T23:45:14.234Z,0.67
2022-10-05T23:47:42.427Z,2.17
2022-10-05T23:50:10.865Z,0.50
2022-10-05T23:52:39.102Z,1.50
2022-10-05T23:55:09.064Z,0.40
2022-10-05T23:57:38.304Z,0.93
